Time;durP1;ratioP1;P1;durP2;ratioP2;P2;SDS_P1;SDS_P2;PMS_P1;PMS_P2;Temp;Humidity;BMP_temperature;BMP_pressure;BME280_temperature;BME280_humidity;BME280_pressure;Samples;Min_cycle;Max_cycle;Signal;HPM_P1;HPM_P2
2022/08/05 00:00:19;;;;;;;9.20;4.90;;;;;;;22.13;50.68;100403.31;109821;1262;23877;-78
2022/08/05 00:03:05;;;;;;;8.20;4.90;;;;;;;22.09;50.66;100402.81;109399;1261;22707;-79
2022/08/05 00:05:43;;;;;;;7.70;5.20;;;;;;;22.06;50.84;100402.98;109596;1262;21978;-78
2022/08/05 00:08:33;;;;;;;8.80;5.00;;;;;;;22.03;50.93;100402.50;109880;1260;22127;-79
2022/08/05 00:11:10;;;;;;;5.30;4.80;;;;;;;22.01;51.04;100401.17;110040;1260;23017;-79
2022/08/05 00:13:58;;;;;;;8.00;5.60;;;;;;;21.99;51.06;100401.02;110409;1253;21925;-78
2022/08/05 00:16:27;;;;;;;8.80;4.70;;;;;;;21.96;51.07;100403.06;110374;1254;23891;-78
2022/08/05 00:19:16;;;;;;;6.50;4.80;;;;;;;21.91;51.30;100401.40;110446;1253;22803;-78
2022/08/05 00:21:49;;;;;;;5.90;5.30;;;;;;;21.87;51.38;100398.05;110395;1254;23574;-79
2022/08/05 00:24:18;;;;;;;5.30;4.80;;;;;;;21.83;51.41;100399.92;110593;1253;22188;-77
2022/08/05 00:26:59;;;;;;;6.50;5.80;;;;;;;21.80;51.49;100401.39;110427;1254;21969;-79
2022/08/05 00:29:32;;;;;;;8.30;5.80;;;;;;;21.78;51.47;100402.09;110419;1254;21966;-78
2022/08/05 00:32:09;;;;;;;10.60;5.40;;;;;;;21.77;51.68;100402.16;110388;1254;21973;-78
2022/08/05 00:34:44;;;;;;;7.70;5.40;;;;;;;21.75;51.73;100400.63;110157;1254;22053;-78
2022/08/05 00:37:34;;;;;;;9.00;5.60;;;;;;;21.70;51.68;100400.48;110609;1253;21960;-78
2022/08/05 00:40:24;;;;;;;6.40;5.60;;;;;;;21.63;51.83;100396.48;110437;1254;23134;-79
2022/08/05 00:42:59;;;;;;;6.60;5.40;;;;;;;21.59;51.91;100398.77;110433;1257;23073;-78
2022/08/05 00:45:29;;;;;;;7.60;5.30;;;;;;;21.57;52.03;100400.02;110291;1257;21981;-78
2022/08/05 00:48:08;;;;;;;7.20;5.50;;;;;;;21.56;52.06;100398.44;110185;1257;23065;-78
2022/08/05 00:50:41;;;;;;;7.20;5.60;;;;;;;21.53;52.10;100396.88;110266;1259;22996;-78
2022/08/05 00:53:17;;;;;;;5.70;5.20;;;;;;;21.50;52.27;100393.44;110342;1257;22761;-77
2022/08/05 00:56:06;;;;;;;8.00;6.00;;;;;;;21.45;52.33;100395.23;110289;1256;21952;-78
2022/08/05 00:58:36;;;;;;;9.10;5.50;;;;;;;21.42;52.41;100392.09;110206;1257;21995;-78
2022/08/05 01:01:06;;;;;;;10.10;4.90;;;;;;;21.40;52.40;100387.86;110338;1254;23746;-78
2022/08/05 01:03:38;;;;;;;7.70;5.50;;;;;;;21.37;52.46;100384.47;110355;1254;22027;-78
2022/08/05 01:06:08;;;;;;;8.60;5.70;;;;;;;21.34;52.52;100380.10;110599;1254;21950;-78
2022/08/05 01:08:43;;;;;;;10.30;5.90;;;;;;;21.32;52.60;100381.75;110571;1254;23823;-78
2022/08/05 01:11:19;;;;;;;9.00;5.80;;;;;;;21.29;52.75;100376.05;110511;1254;23059;-78
2022/08/05 01:14:36;;;;;;;7.80;5.60;;;;;;;21.27;52.76;100375.05;110187;1259;21965;-78
2022/08/05 01:17:25;;;;;;;8.00;5.30;;;;;;;21.22;52.87;100371.77;110020;1259;23837;-78
2022/08/05 01:20:21;;;;;;;9.00;6.30;;;;;;;21.19;52.94;100375.10;109851;1259;22952;-78
2022/08/05 01:23:08;;;;;;;7.30;6.30;;;;;;;21.17;53.18;100371.25;110266;1259;24355;-78
2022/08/05 01:25:58;;;;;;;7.20;6.10;;;;;;;21.15;53.27;100369.80;110283;1259;22813;-78
2022/08/05 01:29:13;;;;;;;7.50;6.10;;;;;;;21.14;53.23;100366.60;110056;1259;21963;-78
2022/08/05 01:31:50;;;;;;;7.70;5.80;;;;;;;21.08;53.30;100362.04;108936;1270;23231;-78
2022/08/05 01:34:30;;;;;;;9.60;6.40;;;;;;;21.04;53.41;100360.14;108432;1276;21999;-78
2022/08/05 01:37:18;;;;;;;6.80;5.80;;;;;;;21.02;53.58;100361.00;108132;1280;21995;-78
2022/08/05 01:39:54;;;;;;;6.10;5.50;;;;;;;21.02;53.66;100361.42;108444;1276;23002;-78
2022/08/05 01:42:30;;;;;;;8.40;6.30;;;;;;;21.03;53.71;100363.96;108491;1276;23063;-78
2022/08/05 01:45:00;;;;;;;7.00;5.90;;;;;;;21.02;53.78;100363.02;108348;1276;22016;-78
2022/08/05 01:47:34;;;;;;;6.60;5.80;;;;;;;21.00;53.99;100358.58;108044;1280;21999;-79
2022/08/05 01:50:17;;;;;;;6.20;5.70;;;;;;;20.98;53.86;100356.39;108186;1277;22023;-79
2022/08/05 01:53:02;;;;;;;9.00;5.50;;;;;;;20.95;53.96;100354.34;108525;1273;23078;-79
2022/08/05 01:55:34;;;;;;;7.90;6.00;;;;;;;20.93;53.96;100354.03;108968;1267;23599;-78
2022/08/05 01:58:07;;;;;;;7.30;5.80;;;;;;;20.92;53.95;100356.21;108911;1267;22152;-78
2022/08/05 02:00:51;;;;;;;10.70;6.60;;;;;;;20.89;54.10;100353.37;108736;1270;21995;-78
2022/08/05 02:03:31;;;;;;;9.80;5.60;;;;;;;20.86;54.12;100351.20;108818;1270;23693;-78
2022/08/05 02:06:05;;;;;;;7.90;6.30;;;;;;;20.82;54.22;100350.63;109450;1257;21979;-79
2022/08/05 02:08:55;;;;;;;7.40;5.50;;;;;;;20.77;54.36;100347.35;110173;1257;21989;-79
2022/08/05 02:11:47;;;;;;;11.20;6.40;;;;;;;20.73;54.39;100344.41;110212;1257;22919;-78
2022/08/05 02:14:29;;;;;;;8.20;5.60;;;;;;;20.70;54.59;100340.59;110018;1259;23046;-80
2022/08/05 02:17:08;;;;;;;6.40;5.70;;;;;;;20.71;54.86;100339.00;110017;1259;22064;-78
2022/08/05 02:20:01;;;;;;;8.30;6.10;;;;;;;20.71;54.78;100338.79;110261;1256;21995;-77
2022/08/05 02:22:47;;;;;;;9.60;6.40;;;;;;;20.72;54.90;100337.85;110465;1255;22039;-78
2022/08/05 02:25:21;;;;;;;7.50;5.50;;;;;;;20.70;54.75;100333.90;110494;1256;22882;-78
2022/08/05 02:27:51;;;;;;;7.40;5.30;;;;;;;20.67;54.80;100332.70;109650;1260;23755;-79
2022/08/05 02:30:44;;;;;;;6.00;4.90;;;;;;;20.64;54.73;100331.71;109878;1260;22799;-78
2022/08/05 02:33:24;;;;;;;6.70;5.40;;;;;;;20.59;54.96;100326.77;110224;1257;23068;-79
2022/08/05 02:36:12;;;;;;;7.50;6.60;;;;;;;20.54;54.90;100327.12;109999;1257;23039;-79
2022/08/05 02:38:47;;;;;;;13.30;6.20;;;;;;;20.47;55.02;100323.67;110222;1259;22774;-79
2022/08/05 02:41:25;;;;;;;6.30;5.50;;;;;;;20.42;55.21;100322.80;110115;1257;23074;-79
2022/08/05 02:44:12;;;;;;;10.20;5.70;;;;;;;20.38;55.27;100321.52;110040;1257;21966;-78
2022/08/05 02:46:45;;;;;;;6.70;6.00;;;;;;;20.35;55.41;100321.74;110307;1253;21966;-78
2022/08/05 02:49:41;;;;;;;9.20;6.10;;;;;;;20.34;55.55;100323.48;110067;1259;23056;-79
2022/08/05 02:52:18;;;;;;;6.40;5.70;;;;;;;20.35;55.62;100321.90;109881;1259;23030;-79
2022/08/05 02:55:04;;;;;;;10.20;5.80;;;;;;;20.33;55.72;100320.57;110150;1259;21968;-79
2022/08/05 02:57:41;;;;;;;8.60;6.20;;;;;;;20.33;55.77;100323.27;109967;1260;21977;-78
2022/08/05 03:00:31;;;;;;;9.20;6.00;;;;;;;20.31;55.87;100321.42;110168;1260;21980;-79
2022/08/05 03:03:03;;;;;;;8.60;6.40;;;;;;;20.31;55.84;100316.48;110190;1258;23607;-78
2022/08/05 03:05:39;;;;;;;8.10;6.20;;;;;;;20.30;55.87;100312.44;110164;1258;22100;-77
2022/08/05 03:08:29;;;;;;;9.30;6.10;;;;;;;20.28;55.90;100307.66;110011;1260;23242;-79
2022/08/05 03:10:59;;;;;;;7.20;6.50;;;;;;;20.26;55.96;100305.54;110191;1260;21973;-79
2022/08/05 03:13:49;;;;;;;6.40;5.60;;;;;;;20.24;55.97;100305.82;110165;1253;22432;-79
2022/08/05 03:16:30;;;;;;;9.90;6.20;;;;;;;20.25;56.04;100309.65;109839;1260;23624;-79
2022/08/05 03:19:00;;;;;;;8.50;5.50;;;;;;;20.27;56.00;100310.45;109623;1260;23790;-79
2022/08/05 03:21:40;;;;;;;11.60;6.50;;;;;;;20.30;56.22;100311.15;110042;1260;22138;-79
2022/08/05 03:24:18;;;;;;;10.60;6.60;;;;;;;20.33;56.12;100307.63;109930;1260;23830;-79
2022/08/05 03:26:59;;;;;;;8.60;6.40;;;;;;;20.33;55.97;100307.48;109732;1259;23704;-78
2022/08/05 03:29:28;;;;;;;9.20;6.20;;;;;;;20.32;55.93;100305.48;109850;1261;23689;-79
2022/08/05 03:32:18;;;;;;;14.00;6.80;;;;;;;20.28;55.92;100303.48;109887;1259;22047;-79
2022/08/05 03:34:48;;;;;;;7.90;6.00;;;;;;;20.24;55.96;100297.08;110182;1253;22008;-78
2022/08/05 03:37:19;;;;;;;;;;;;;;;20.20;56.02;100295.04;110413;1253;22056;-79
2022/08/05 03:39:55;;;;;;;11.20;5.60;;;;;;;20.05;56.22;100288.79;110734;1253;23582;-78
2022/08/05 03:42:29;;;;;;;6.90;5.60;;;;;;;19.99;56.42;100290.52;110786;1252;23601;-78
2022/08/05 03:45:01;;;;;;;9.80;7.00;;;;;;;19.97;56.50;100288.81;110457;1256;22002;-78
2022/08/05 03:47:50;;;;;;;14.50;6.70;;;;;;;19.97;56.70;100287.16;110025;1258;21994;-78
2022/08/05 03:50:40;;;;;;;12.40;6.30;;;;;;;19.99;56.87;100282.74;110078;1256;23072;-78
2022/08/05 03:53:45;;;;;;;7.70;6.10;;;;;;;20.02;56.88;100277.23;110080;1257;22033;-78
2022/08/05 03:56:44;;;;;;;6.00;5.30;;;;;;;20.02;57.02;100278.48;110174;1257;22010;-78
2022/08/05 03:59:22;;;;;;;10.50;7.00;;;;;;;20.03;57.06;100280.21;110330;1257;23637;-77
2022/08/05 04:01:55;;;;;;;6.60;6.00;;;;;;;20.04;57.04;100280.70;110207;1257;23789;-77
2022/08/05 04:04:30;;;;;;;9.20;6.30;;;;;;;20.04;57.03;100283.38;110167;1257;21958;-78
2022/08/05 04:07:01;;;;;;;12.10;6.40;;;;;;;20.05;57.16;100288.16;110186;1257;21975;-78
2022/08/05 04:09:32;;;;;;;9.90;6.70;;;;;;;20.05;57.13;100287.17;109579;1263;22925;-77
2022/08/05 04:12:05;;;;;;;7.40;6.20;;;;;;;20.05;57.14;100285.27;109383;1263;23167;-78
2022/08/05 04:14:55;;;;;;;7.60;6.20;;;;;;;20.07;57.19;100287.39;109550;1264;22207;-78
2022/08/05 04:17:27;;;;;;;10.80;6.90;;;;;;;20.11;57.31;100289.73;109212;1263;23054;-79
2022/08/05 04:20:19;;;;;;;8.00;6.20;;;;;;;20.18;57.40;100290.77;109250;1263;22453;-79
2022/08/05 04:22:51;;;;;;;9.70;5.90;;;;;;;20.26;57.39;100284.46;109564;1259;23674;-78
2022/08/05 04:25:20;;;;;;;7.40;5.00;;;;;;;20.31;57.22;100281.68;110014;1260;23577;-78
2022/08/05 04:28:09;;;;;;;7.60;5.40;;;;;;;20.36;57.27;100280.77;110244;1255;23035;-79
2022/08/05 04:30:40;;;;;;;7.60;5.20;;;;;;;20.41;57.11;100280.40;110490;1254;23753;-79
2022/08/05 04:33:13;;;;;;;9.60;5.70;;;;;;;20.47;57.06;100276.77;110545;1254;21993;-79
2022/08/05 04:35:42;;;;;;;8.80;4.90;;;;;;;20.53;56.84;100280.52;110582;1254;23648;-79
2022/08/05 04:38:39;;;;;;;11.70;5.30;;;;;;;20.58;56.78;100276.56;110493;1254;24142;-80
2022/08/05 04:41:13;;;;;;;7.00;5.70;;;;;;;20.64;56.61;100275.73;110418;1255;22373;-79
2022/08/05 04:43:44;;;;;;;10.80;4.80;;;;;;;20.71;56.29;100269.59;110573;1254;23615;-78
2022/08/05 04:46:19;;;;;;;14.70;5.20;;;;;;;20.77;56.22;100270.63;110571;1254;21982;-78
2022/08/05 04:48:59;;;;;;;12.10;5.90;;;;;;;20.83;56.15;100272.52;110456;1256;23573;-79
2022/08/05 04:51:31;;;;;;;7.40;5.60;;;;;;;20.89;56.06;100274.37;110435;1254;21965;-78
2022/08/05 04:54:05;;;;;;;9.60;6.50;;;;;;;20.99;56.11;100269.64;110451;1253;23029;-77
2022/08/05 04:56:40;;;;;;;5.20;4.70;;;;;;;21.08;56.19;100271.85;110532;1253;23478;-78
2022/08/05 04:59:11;;;;;;;8.20;4.70;;;;;;;21.17;55.91;100271.69;110542;1253;21957;-78
2022/08/05 05:01:52;;;;;;;5.90;4.60;;;;;;;21.26;55.75;100267.58;110181;1257;21963;-76
2022/08/05 05:04:36;;;;;;;8.90;4.20;;;;;;;21.33;55.56;100264.97;109212;1264;22765;-76
2022/08/05 05:07:06;;;;;;;6.40;4.10;;;;;;;21.42;55.23;100266.76;109377;1261;22764;-76
2022/08/05 05:09:43;;;;;;;8.90;4.60;;;;;;;21.52;54.89;100270.92;109447;1263;23603;-77
2022/08/05 05:12:15;;;;;;;5.70;4.30;;;;;;;21.61;54.62;100271.45;109323;1262;23732;-76
2022/08/05 05:14:45;;;;;;;6.90;4.30;;;;;;;21.72;54.48;100270.48;108878;1270;22004;-76
2022/08/05 05:17:18;;;;;;;6.30;4.40;;;;;;;21.84;54.02;100271.08;108867;1270;23697;-77
2022/08/05 05:19:54;;;;;;;9.30;5.90;;;;;;;21.95;53.61;100274.16;108991;1267;22059;-77
2022/08/05 05:22:24;;;;;;;10.40;6.10;;;;;;;22.05;53.21;100268.46;108923;1264;22461;-76
2022/08/05 05:24:54;;;;;;;12.80;6.00;;;;;;;22.17;52.84;100270.02;109203;1264;22824;-76
2022/08/05 05:27:29;;;;;;;7.30;4.70;;;;;;;22.30;52.48;100268.16;108910;1267;21969;-76
2022/08/05 05:30:14;;;;;;;6.80;4.00;;;;;;;22.45;52.32;100265.62;108856;1270;21992;-76
2022/08/05 05:33:00;;;;;;;8.10;3.60;;;;;;;22.63;52.01;100268.45;108878;1270;23073;-77
2022/08/05 05:35:45;;;;;;;6.50;3.30;;;;;;;22.82;51.39;100274.23;108911;1269;23059;-77
2022/08/05 05:38:16;;;;;;;6.60;4.50;;;;;;;23.04;51.24;100278.50;109004;1270;23855;-77
2022/08/05 05:40:55;;;;;;;9.90;5.30;;;;;;;23.28;50.53;100279.39;109675;1261;21985;-76
2022/08/05 05:43:25;;;;;;;6.90;5.10;;;;;;;23.53;49.97;100273.96;109852;1260;24413;-77
2022/08/05 05:46:14;;;;;;;6.20;4.20;;;;;;;23.81;49.33;100278.02;110371;1253;22021;-78
2022/08/05 05:48:46;;;;;;;4.20;3.50;;;;;;;24.04;48.43;100277.23;110527;1253;23051;-78
2022/08/05 05:51:22;;;;;;;4.20;3.10;;;;;;;24.25;48.04;100275.64;110653;1254;21958;-77
2022/08/05 05:53:53;;;;;;;9.00;3.20;;;;;;;24.47;47.61;100275.80;110655;1253;22090;-78
2022/08/05 05:56:31;;;;;;;6.00;2.90;;;;;;;24.72;47.54;100274.52;110195;1258;23062;-77
2022/08/05 05:59:04;;;;;;;3.90;3.40;;;;;;;25.00;47.23;100267.40;110169;1257;23144;-77
2022/08/05 06:01:39;;;;;;;5.90;3.50;;;;;;;25.32;46.89;100269.83;110231;1256;21961;-79
2022/08/05 06:04:25;;;;;;;4.60;3.10;;;;;;;25.70;46.01;100271.13;110316;1256;22037;-78
2022/08/05 06:06:54;;;;;;;6.80;2.70;;;;;;;26.05;45.37;100271.27;110221;1257;21936;-78
2022/08/05 06:09:29;;;;;;;5.80;2.80;;;;;;;26.37;44.64;100270.77;110269;1257;22002;-78
2022/08/05 06:12:18;;;;;;;4.90;2.90;;;;;;;26.70;43.95;100272.14;110206;1257;22035;-78
2022/08/05 06:14:47;;;;;;;3.40;2.60;;;;;;;26.98;43.14;100274.69;110355;1253;23641;-77
2022/08/05 06:17:19;;;;;;;3.70;2.40;;;;;;;27.23;42.76;100276.90;110404;1253;23590;-78
2022/08/05 06:20:08;;;;;;;5.90;2.50;;;;;;;27.51;42.40;100279.50;110402;1253;21971;-77
2022/08/05 06:22:49;;;;;;;3.80;2.60;;;;;;;27.78;41.74;100283.55;110565;1253;23594;-77
2022/08/05 06:25:18;;;;;;;3.70;2.50;;;;;;;27.99;41.34;100283.11;110579;1253;22221;-77
2022/08/05 06:28:07;;;;;;;10.30;2.60;;;;;;;28.28;41.17;100282.78;110473;1253;21964;-78
2022/08/05 06:30:48;;;;;;;4.20;2.50;;;;;;;28.66;40.74;100281.91;110316;1259;23748;-79
2022/08/05 06:33:17;;;;;;;7.80;2.90;;;;;;;29.00;39.77;100280.14;109961;1261;22128;-78
2022/08/05 06:35:47;;;;;;;5.10;2.80;;;;;;;29.32;39.28;100280.25;110333;1256;23072;-77
2022/08/05 06:38:36;;;;;;;4.80;2.50;;;;;;;29.62;38.69;100274.53;110320;1256;21965;-78
2022/08/05 06:41:05;;;;;;;5.60;3.00;;;;;;;29.96;38.34;100273.55;110285;1257;22198;-78
2022/08/05 06:43:38;;;;;;;5.60;2.90;;;;;;;30.16;37.06;100266.76;110262;1256;21970;-78
2022/08/05 06:46:28;;;;;;;2.80;2.10;;;;;;;30.28;36.42;100259.91;110247;1256;23755;-78
2022/08/05 06:48:58;;;;;;;3.90;2.50;;;;;;;30.49;36.22;100259.67;110510;1253;23586;-79
2022/08/05 06:51:29;;;;;;;4.30;2.50;;;;;;;30.63;35.31;100257.75;110007;1259;23602;-77
2022/08/05 06:54:01;;;;;;;4.20;2.50;;;;;;;30.64;34.88;100255.33;110239;1258;22853;-77
2022/08/05 06:56:32;;;;;;;5.80;3.00;;;;;;;30.59;34.70;100257.35;110219;1259;23681;-78
2022/08/05 06:59:04;;;;;;;3.30;2.40;;;;;;;30.65;34.94;100259.98;110261;1257;21988;-79
2022/08/05 07:01:40;;;;;;;3.20;2.30;;;;;;;30.84;34.58;100260.07;109517;1263;22339;-78
2022/08/05 07:04:10;;;;;;;;;;;;;;;31.00;33.77;100259.34;109291;1263;23128;-77
2022/08/05 07:06:42;;;;;;;4.90;2.50;;;;;;;31.15;33.60;100263.42;109670;1263;23650;-78
2022/08/05 07:09:14;;;;;;;5.00;2.50;;;;;;;31.38;33.38;100259.59;109067;1263;22034;-78
2022/08/05 07:11:43;;;;;;;3.50;2.10;;;;;;;31.61;32.38;100263.95;109503;1264;22244;-78
2022/08/05 07:17:07;;;;;;;5.00;2.40;;;;;;;31.78;31.51;100263.70;109569;1264;21981;-78
2022/08/05 07:19:56;;;;;;;7.20;2.70;;;;;;;31.78;31.30;100262.48;109783;1259;23758;-78
2022/08/05 07:22:45;;;;;;;8.20;2.60;;;;;;;31.74;31.18;100260.14;110226;1257;22119;-78
2022/08/05 07:25:15;;;;;;;;;;;;;;;31.78;31.00;100263.86;109310;1262;21963;-78
2022/08/05 07:28:04;;;;;;;5.30;2.30;;;;;;;31.75;31.13;100262.37;109800;1259;24285;-77
2022/08/05 07:30:40;;;;;;;14.60;13.20;;;;;;;31.83;31.30;100259.65;109675;1260;22541;-78
2022/08/05 07:33:11;;;;;;;3.70;3.40;;;;;;;32.04;31.26;100261.68;109204;1267;23713;-78
2022/08/05 07:35:45;;;;;;;5.20;2.20;;;;;;;32.18;30.52;100265.46;108758;1270;23063;-78
2022/08/05 07:38:36;;;;;;;4.90;2.70;;;;;;;32.27;30.33;100261.90;108602;1270;23837;-78
2022/08/05 07:41:22;;;;;;;9.90;9.00;;;;;;;32.44;30.50;100261.29;108737;1270;23139;-79
2022/08/05 07:44:14;;;;;;;5.80;3.50;;;;;;;32.71;30.09;100262.81;108798;1270;22101;-77
2022/08/05 07:46:48;;;;;;;5.60;3.10;;;;;;;32.81;29.67;100263.02;108798;1271;23726;-77
2022/08/05 07:49:19;;;;;;;5.50;3.10;;;;;;;33.04;29.83;100258.63;108836;1265;21973;-78
2022/08/05 07:51:48;;;;;;;4.70;2.80;;;;;;;33.25;29.71;100252.50;109607;1257;22561;-78
2022/08/05 07:54:27;;;;;;;6.80;2.50;;;;;;;33.48;29.11;100249.77;110199;1257;21971;-77
2022/08/05 07:57:03;;;;;;;5.80;3.00;;;;;;;33.61;28.85;100249.92;110244;1257;22084;-77
2022/08/05 07:59:50;;;;;;;4.50;2.50;;;;;;;33.79;28.43;100251.98;110119;1253;22993;-77
2022/08/05 08:02:28;;;;;;;5.40;3.00;;;;;;;33.87;28.42;100249.05;110544;1253;21966;-78
2022/08/05 08:05:17;;;;;;;8.70;4.00;;;;;;;34.01;28.14;100252.71;110558;1253;23649;-78
2022/08/05 08:07:46;;;;;;;4.70;2.70;;;;;;;34.13;27.81;100258.09;109323;1253;1763512;-78
2022/08/05 08:10:28;;;;;;;6.80;2.70;;;;;;;34.33;27.94;100262.81;110533;1253;21971;-79
2022/08/05 08:12:58;;;;;;;3.30;2.70;;;;;;;34.49;27.21;100257.65;110366;1253;23674;-78
2022/08/05 08:15:30;;;;;;;5.60;2.80;;;;;;;34.49;27.23;100257.48;110689;1253;24845;-77
2022/08/05 08:18:19;;;;;;;7.40;3.40;;;;;;;34.33;26.72;100251.36;110572;1253;23698;-77
2022/08/05 08:20:50;;;;;;;3.70;2.80;;;;;;;34.17;27.17;100249.85;110344;1254;21956;-82
2022/08/05 08:23:31;;;;;;;5.50;2.30;;;;;;;34.04;27.57;100246.90;110111;1256;21979;-78
2022/08/05 08:26:24;;;;;;;3.70;2.50;;;;;;;34.07;27.62;100251.08;110324;1256;21971;-81
2022/08/05 08:29:01;;;;;;;3.70;2.50;;;;;;;34.10;27.26;100252.23;110047;1256;23613;-78
2022/08/05 08:31:51;;;;;;;6.10;3.00;;;;;;;34.07;27.65;100251.25;110306;1256;23724;-78
2022/08/05 08:34:23;;;;;;;2.50;2.20;;;;;;;34.17;27.50;100248.95;110006;1256;22099;-78
2022/08/05 08:37:01;;;;;;;5.70;2.50;;;;;;;34.21;27.38;100246.52;110248;1256;21965;-78
2022/08/05 08:39:57;;;;;;;2.90;2.30;;;;;;;34.30;27.04;100250.55;110382;1256;21989;-77
2022/08/05 08:42:28;;;;;;;2.60;2.40;;;;;;;34.42;27.22;100247.13;110394;1253;23590;-77
2022/08/05 08:45:21;;;;;;;4.10;2.60;;;;;;;34.56;26.86;100247.70;110549;1253;21993;-79
2022/08/05 08:48:01;;;;;;;4.30;2.50;;;;;;;34.59;26.81;100242.96;110229;1259;22057;-77
2022/08/05 08:50:51;;;;;;;3.40;2.50;;;;;;;34.68;26.99;100237.33;110367;1257;23565;-77
2022/08/05 08:53:43;;;;;;;4.40;2.90;;;;;;;34.76;26.43;100230.27;109979;1259;22423;-77
2022/08/05 08:56:16;;;;;;;4.50;2.20;;;;;;;34.79;26.27;100228.91;110062;1256;21963;-82
2022/08/05 08:58:47;;;;;;;5.40;2.90;;;;;;;34.92;26.60;100229.00;110479;1257;22000;-81
2022/08/05 09:01:21;;;;;;;7.60;2.70;;;;;;;35.10;26.03;100230.88;110267;1256;22867;-80
2022/08/05 09:03:55;;;;;;;4.80;2.80;;;;;;;35.17;26.05;100230.36;110459;1257;21969;-78
2022/08/05 09:06:31;;;;;;;2.90;2.10;;;;;;;35.25;25.85;100230.81;110352;1253;23671;-78
2022/08/05 09:09:04;;;;;;;3.10;2.10;;;;;;;35.29;25.37;100232.20;110838;1250;21962;-77
2022/08/05 09:11:35;;;;;;;4.30;2.30;;;;;;;35.35;25.42;100226.23;110551;1254;22257;-76
2022/08/05 09:14:24;;;;;;;8.50;2.30;;;;;;;35.56;25.32;100225.67;110060;1260;22190;-77
2022/08/05 09:17:18;;;;;;;2.60;2.40;;;;;;;35.78;25.00;100222.72;110219;1259;21966;-77
2022/08/05 09:20:13;;;;;;;4.80;2.00;;;;;;;35.87;25.23;100224.30;110085;1258;22008;-78
2022/08/05 09:23:09;;;;;;;4.10;2.40;;;;;;;35.85;24.60;100221.48;110207;1259;25616;-77
2022/08/05 09:26:04;;;;;;;4.90;2.50;;;;;;;35.65;25.16;100214.11;110255;1259;22079;-76
2022/08/05 09:28:39;;;;;;;3.30;2.60;;;;;;;35.68;25.06;100213.04;109984;1260;22770;-76
2022/08/05 09:31:12;;;;;;;6.20;2.60;;;;;;;35.58;24.69;100209.33;109857;1259;24501;-76
2022/08/05 09:34:10;;;;;;;6.00;2.60;;;;;;;35.50;25.01;100205.02;110699;1251;24274;-76
2022/08/05 09:36:49;;;;;;;7.50;3.30;;;;;;;35.51;24.88;100202.56;110321;1257;22102;-78
2022/08/05 09:39:28;;;;;;;5.10;2.50;;;;;;;35.47;24.43;100202.17;109838;1261;21968;-76
2022/08/05 09:42:22;;;;;;;;;;;;;;;35.57;24.72;100204.68;109941;1262;22114;-76
2022/08/05 09:45:05;;;;;;;7.80;3.00;;;;;;;35.60;24.43;100206.98;109999;1261;23637;-75
2022/08/05 09:47:55;;;;;;;4.10;1.90;;;;;;;35.66;23.85;100199.39;109863;1260;22020;-77
2022/08/05 09:50:37;;;;;;;3.50;2.50;;;;;;;35.66;24.20;100200.35;109852;1262;23830;-79
2022/08/05 09:53:13;;;;;;;7.50;3.90;;;;;;;35.71;24.31;100198.88;109593;1261;23819;-76
2022/08/05 09:56:02;;;;;;;4.10;2.40;;;;;;;35.85;24.25;100203.67;110149;1256;21960;-77
2022/08/05 09:58:39;;;;;;;7.10;2.60;;;;;;;35.92;24.03;100198.39;109951;1259;23014;-77
2022/08/05 10:01:13;;;;;;;5.80;2.30;;;;;;;36.04;24.16;100200.84;110203;1257;21972;-77
2022/08/05 10:04:12;;;;;;;3.30;2.30;;;;;;;36.15;23.85;100194.45;110370;1253;21998;-77
2022/08/05 10:06:56;;;;;;;4.40;2.10;;;;;;;36.25;23.89;100192.80;110721;1250;24320;-78
2022/08/05 10:09:28;;;;;;;6.30;2.60;;;;;;;36.34;23.43;100191.91;110775;1250;23634;-78
2022/08/05 10:12:10;;;;;;;4.60;3.40;;;;;;;36.32;23.64;100194.91;110337;1256;23022;-77
2022/08/05 10:15:14;;;;;;;4.50;2.40;;;;;;;36.20;23.54;100190.48;110334;1255;22203;-78
2022/08/05 10:18:18;;;;;;;6.60;3.30;;;;;;;36.13;23.89;100192.11;110354;1256;24281;-77
2022/08/05 10:21:02;;;;;;;3.80;2.20;;;;;;;36.05;23.52;100190.60;110441;1256;23593;-78
2022/08/05 10:23:39;;;;;;;5.30;2.40;;;;;;;36.07;23.86;100191.52;110095;1256;21977;-77
2022/08/05 10:26:29;;;;;;;5.30;2.20;;;;;;;36.15;23.39;100191.84;110296;1256;21966;-77
2022/08/05 10:29:02;;;;;;;6.60;2.70;;;;;;;36.18;23.51;100184.90;109864;1262;22059;-77
2022/08/05 10:31:31;;;;;;;3.70;2.60;;;;;;;36.28;23.53;100184.73;110268;1258;22183;-78
2022/08/05 10:34:21;;;;;;;8.80;3.10;;;;;;;36.27;23.43;100183.69;109797;1259;22385;-79
2022/08/05 10:36:59;;;;;;;6.50;2.20;;;;;;;36.16;23.72;100179.01;109625;1261;22705;-78
2022/08/05 10:39:36;;;;;;;3.10;2.50;;;;;;;36.21;23.60;100181.47;109699;1262;23144;-77
2022/08/05 10:42:28;;;;;;;4.20;2.30;;;;;;;36.01;23.13;100189.12;109616;1262;23707;-78
2022/08/05 10:45:06;;;;;;;3.60;2.30;;;;;;;35.80;23.56;100181.41;109724;1260;22701;-77
2022/08/05 10:47:55;;;;;;;8.10;2.80;;;;;;;35.66;23.65;100182.58;110095;1257;24665;-78
2022/08/05 10:51:10;;;;;;;6.10;2.80;;;;;;;35.51;24.06;100178.16;110138;1258;21973;-78
2022/08/05 10:53:59;;;;;;;19.30;4.20;;;;;;;35.40;24.48;100165.58;110503;1257;23702;-80
2022/08/05 10:56:55;;;;;;;7.30;3.30;;;;;;;35.30;24.90;100160.45;110849;1253;21960;-80
2022/08/05 10:59:31;;;;;;;3.90;2.70;;;;;;;35.18;24.89;100161.15;110026;1259;21973;-80
2022/08/05 11:02:21;;;;;;;3.80;2.50;;;;;;;34.97;25.23;100154.25;110161;1258;23647;-80
2022/08/05 11:05:09;;;;;;;3.40;2.70;;;;;;;34.81;25.42;100154.05;109816;1258;21996;-81
2022/08/05 11:07:58;;;;;;;6.20;3.80;;;;;;;34.57;25.77;100150.92;109924;1259;22496;-80
2022/08/05 11:10:36;;;;;;;5.40;2.60;;;;;;;34.37;26.23;100147.40;110269;1258;21969;-80
2022/08/05 11:13:05;;;;;;;6.00;3.30;;;;;;;34.22;26.81;100144.63;110166;1259;22164;-79
2022/08/05 11:15:42;;;;;;;3.20;2.80;;;;;;;34.07;27.18;100143.86;110214;1259;23017;-79
2022/08/05 11:18:32;;;;;;;7.40;3.20;;;;;;;33.92;27.19;100144.44;110460;1253;23667;-79
2022/08/05 11:21:02;;;;;;;6.50;3.80;;;;;;;33.79;26.92;100145.56;110649;1253;24436;-80
2022/08/05 11:23:52;;;;;;;5.40;3.20;;;;;;;33.69;27.25;100143.27;111203;1253;22925;-80
2022/08/05 11:26:41;;;;;;;5.50;2.80;;;;;;;33.52;27.27;100140.35;110654;1253;22408;-79
2022/08/05 11:29:39;;;;;;;9.60;3.50;;;;;;;33.37;27.75;100143.50;110670;1252;22009;-79
2022/08/05 11:32:27;;;;;;;4.80;3.10;;;;;;;33.26;28.25;100146.16;110467;1256;23065;-79
2022/08/05 11:34:57;;;;;;;2.90;2.60;;;;;;;33.20;28.12;100142.34;110170;1257;22093;-80
2022/08/05 11:37:39;;;;;;;6.60;3.10;;;;;;;33.22;27.60;100139.70;110259;1255;23654;-81
2022/08/05 11:41:01;;;;;;;3.60;2.60;;;;;;;33.28;27.77;100136.55;110614;1256;21966;-81
2022/08/05 11:44:02;;;;;;;3.90;2.70;;;;;;;33.28;27.43;100132.98;110546;1256;21968;-80
2022/08/05 11:46:51;;;;;;;5.00;2.90;;;;;;;33.30;27.90;100134.30;110366;1256;22207;-80
2022/08/05 11:49:40;;;;;;;6.20;3.10;;;;;;;33.24;27.69;100137.79;110597;1253;23033;-80
2022/08/05 11:52:11;;;;;;;3.80;3.00;;;;;;;33.17;27.96;100137.89;110679;1252;22259;-79
2022/08/05 11:54:40;;;;;;;3.00;2.80;;;;;;;33.14;27.88;100136.30;110567;1256;22409;-80
2022/08/05 11:57:16;;;;;;;8.80;3.30;;;;;;;33.12;27.64;100138.29;110771;1253;21949;-81
2022/08/05 11:59:55;;;;;;;6.20;2.60;;;;;;;33.12;27.54;100132.66;110340;1259;23004;-80
2022/08/05 12:02:28;;;;;;;4.10;3.00;;;;;;;33.12;27.46;100127.45;110106;1257;21961;-79
2022/08/05 12:05:04;;;;;;;6.10;2.70;;;;;;;33.15;27.98;100130.14;110366;1257;22937;-80
2022/08/05 12:07:47;;;;;;;5.30;3.20;;;;;;;33.20;28.12;100130.58;109711;1262;22032;-82
2022/08/05 12:10:37;;;;;;;;;;;;;;;33.25;28.12;100132.38;109852;1262;23032;-79
2022/08/05 12:13:15;;;;;;;3.50;2.90;;;;;;;33.20;27.81;100131.55;109862;1261;22734;-80
2022/08/05 12:16:17;;;;;;;5.80;3.10;;;;;;;33.21;27.52;100133.39;109548;1262;22096;-80
2022/08/05 12:18:46;;;;;;;5.00;2.50;;;;;;;33.22;27.39;100129.17;110110;1257;21963;-78